SDM6112 USNN-ULLI
Flight info
| Callsign | SDM6112 |
|---|---|
| Flight time | 3h 28m |
| Altitude | 34000 |
| Route | TETSI1P TETSI M59 SORLI P989 NETLU T756 ODNUS L870 ROMUM T816 AMDEN P979 BEPOL BEPOL1A |
| Aircraft | A319/M-SDE3FGHIRWY/LB1 |
Departure
| Time | 2026-04-20 12:47 |
|---|---|
| Airport | Nizhnevartovsk Airport (USNN) |
Arrival
| Time | 2026-04-20 16:15 |
|---|---|
| Airport | Pulkovo Airport (ULLI) |
| Time | Latitude | Longitude | Altitude | Speed | Heading |
|---|---|---|---|---|---|
| 2026-04-20 12:30 | 60.95067 | 76.49086 | 187 ft | 0 kts | 132° |
| 2026-04-20 12:41 | 60.95066 | 76.49088 | 186 ft | 1 kts | 132° |
| 2026-04-20 12:41 | 60.95056 | 76.49110 | 198 ft | 3 kts | 131° |
| 2026-04-20 12:41 | 60.95056 | 76.49172 | 186 ft | 5 kts | 68° |
| 2026-04-20 12:42 | 60.95087 | 76.49233 | 186 ft | 7 kts | 41° |
| 2026-04-20 12:42 | 60.95129 | 76.49312 | 195 ft | 9 kts | 43° |
| 2026-04-20 12:42 | 60.95181 | 76.49399 | 198 ft | 10 kts | 21° |
| 2026-04-20 12:42 | 60.95237 | 76.49318 | 188 ft | 11 kts | 316° |
| 2026-04-20 12:43 | 60.95299 | 76.49217 | 194 ft | 12 kts | 314° |
| 2026-04-20 12:43 | 60.95359 | 76.49083 | 190 ft | 14 kts | 321° |
| 2026-04-20 12:43 | 60.95440 | 76.49147 | 186 ft | 14 kts | 42° |
| 2026-04-20 12:43 | 60.95513 | 76.49286 | 198 ft | 15 kts | 43° |
| 2026-04-20 12:44 | 60.95585 | 76.49421 | 201 ft | 13 kts | 41° |
| 2026-04-20 12:44 | 60.95660 | 76.49563 | 189 ft | 15 kts | 41° |
| 2026-04-20 12:44 | 60.95744 | 76.49719 | 198 ft | 18 kts | 42° |
| 2026-04-20 12:44 | 60.95845 | 76.49907 | 196 ft | 20 kts | 41° |
| 2026-04-20 12:45 | 60.95953 | 76.50117 | 186 ft | 21 kts | 50° |
| 2026-04-20 12:45 | 60.95999 | 76.50257 | 191 ft | 3 kts | 43° |
| 2026-04-20 12:45 | 60.96018 | 76.50235 | 190 ft | 5 kts | 291° |
| 2026-04-20 12:45 | 60.95986 | 76.50168 | 192 ft | 8 kts | 218° |
| 2026-04-20 12:46 | 60.95929 | 76.50067 | 190 ft | 18 kts | 221° |
| 2026-04-20 12:46 | 60.95736 | 76.49708 | 187 ft | 72 kts | 223° |
| 2026-04-20 12:46 | 60.95164 | 76.48638 | 202 ft | 146 kts | 222° |
| 2026-04-20 12:46 | 60.94368 | 76.47129 | 737 ft | 156 kts | 223° |
| 2026-04-20 12:47 | 60.93564 | 76.45578 | 1463 ft | 163 kts | 221° |
| 2026-04-20 12:47 | 60.92685 | 76.43903 | 1969 ft | 181 kts | 220° |
| 2026-04-20 12:47 | 60.91678 | 76.42062 | 2379 ft | 207 kts | 220° |
| 2026-04-20 12:47 | 60.90535 | 76.39996 | 2889 ft | 231 kts | 220° |
| 2026-04-20 12:48 | 60.89304 | 76.37620 | 3493 ft | 253 kts | 230° |
| 2026-04-20 12:48 | 60.88678 | 76.34227 | 4351 ft | 263 kts | 268° |
| 2026-04-20 12:48 | 60.89148 | 76.30624 | 5324 ft | 267 kts | 303° |
| 2026-04-20 12:48 | 60.90339 | 76.27698 | 6331 ft | 269 kts | 317° |
| 2026-04-20 12:49 | 60.91723 | 76.25080 | 7287 ft | 272 kts | 319° |
| 2026-04-20 12:49 | 60.93128 | 76.22428 | 8225 ft | 276 kts | 317° |
| 2026-04-20 12:49 | 60.94497 | 76.19625 | 9176 ft | 280 kts | 314° |
| 2026-04-20 12:49 | 60.95822 | 76.16656 | 10155 ft | 282 kts | 311° |
| 2026-04-20 12:50 | 60.97143 | 76.13486 | 10735 ft | 298 kts | 309° |
| 2026-04-20 12:50 | 60.98507 | 76.10062 | 11135 ft | 317 kts | 308° |
| 2026-04-20 12:50 | 60.99899 | 76.06479 | 11916 ft | 322 kts | 307° |
| 2026-04-20 12:50 | 61.01291 | 76.02854 | 12824 ft | 323 kts | 306° |
| 2026-04-20 12:51 | 61.02683 | 75.99220 | 13746 ft | 323 kts | 306° |
| 2026-04-20 12:51 | 61.04078 | 75.95575 | 14583 ft | 324 kts | 306° |
| 2026-04-20 12:51 | 61.05476 | 75.91924 | 15395 ft | 324 kts | 305° |
| 2026-04-20 12:51 | 61.06877 | 75.88268 | 16197 ft | 325 kts | 305° |
| 2026-04-20 12:52 | 61.08281 | 75.84597 | 16994 ft | 326 kts | 304° |
| 2026-04-20 12:52 | 61.09685 | 75.80920 | 17778 ft | 326 kts | 304° |
| 2026-04-20 12:52 | 61.11092 | 75.77227 | 18564 ft | 328 kts | 304° |
| 2026-04-20 12:52 | 61.12501 | 75.73521 | 19244 ft | 328 kts | 304° |
| 2026-04-20 12:53 | 61.13909 | 75.69815 | 19960 ft | 327 kts | 303° |
| 2026-04-20 12:53 | 61.15306 | 75.66103 | 20685 ft | 326 kts | 301° |
| 2026-04-20 12:53 | 61.16456 | 75.62109 | 21391 ft | 322 kts | 294° |
| 2026-04-20 12:53 | 61.17499 | 75.58005 | 22128 ft | 322 kts | 294° |
| 2026-04-20 12:54 | 61.18204 | 75.55236 | 22604 ft | 321 kts | 294° |
| 2026-04-20 12:54 | 61.19246 | 75.51138 | 23305 ft | 321 kts | 294° |
| 2026-04-20 12:54 | 61.20288 | 75.47037 | 23931 ft | 322 kts | 294° |
| 2026-04-20 12:54 | 61.21332 | 75.42932 | 24444 ft | 323 kts | 294° |
| 2026-04-20 12:55 | 61.22381 | 75.38800 | 24921 ft | 324 kts | 294° |
| 2026-04-20 12:55 | 61.23434 | 75.34643 | 25377 ft | 326 kts | 294° |
| 2026-04-20 12:55 | 61.24491 | 75.30457 | 25823 ft | 328 kts | 294° |
| 2026-04-20 12:55 | 61.25552 | 75.26238 | 26267 ft | 330 kts | 294° |
| 2026-04-20 12:56 | 61.26613 | 75.21997 | 26693 ft | 332 kts | 294° |
| 2026-04-20 12:56 | 61.27682 | 75.17716 | 27114 ft | 335 kts | 294° |
| 2026-04-20 12:56 | 61.28759 | 75.13409 | 27537 ft | 337 kts | 294° |
| 2026-04-20 12:56 | 61.29839 | 75.09064 | 27958 ft | 339 kts | 294° |
| 2026-04-20 12:57 | 61.30916 | 75.04687 | 28373 ft | 341 kts | 294° |
| 2026-04-20 12:57 | 61.31995 | 75.00270 | 28775 ft | 343 kts | 294° |
| 2026-04-20 12:57 | 61.33078 | 74.95812 | 29165 ft | 346 kts | 294° |
| 2026-04-20 12:57 | 61.34166 | 74.91328 | 29536 ft | 348 kts | 294° |
| 2026-04-20 12:58 | 61.35259 | 74.86811 | 29905 ft | 351 kts | 293° |
| 2026-04-20 12:58 | 61.36358 | 74.82258 | 30257 ft | 353 kts | 294° |
| 2026-04-20 12:58 | 61.37465 | 74.77673 | 30546 ft | 356 kts | 294° |
| 2026-04-20 12:58 | 61.38584 | 74.73037 | 30784 ft | 359 kts | 294° |
| 2026-04-20 12:59 | 61.39725 | 74.68302 | 31012 ft | 362 kts | 294° |
| 2026-04-20 12:59 | 61.40858 | 74.63578 | 31234 ft | 366 kts | 294° |
| 2026-04-20 12:59 | 61.42002 | 74.58806 | 31458 ft | 369 kts | 294° |
| 2026-04-20 12:59 | 61.43152 | 74.53994 | 31673 ft | 372 kts | 294° |
| 2026-04-20 13:00 | 61.44306 | 74.49154 | 31976 ft | 373 kts | 294° |
| 2026-04-20 13:00 | 61.45463 | 74.44295 | 32281 ft | 374 kts | 294° |
| 2026-04-20 13:00 | 61.46622 | 74.39409 | 32570 ft | 375 kts | 294° |
| 2026-04-20 13:00 | 61.47781 | 74.34514 | 32854 ft | 377 kts | 294° |
| 2026-04-20 13:01 | 61.48949 | 74.29576 | 33134 ft | 378 kts | 294° |
| 2026-04-20 13:01 | 61.50079 | 74.24595 | 33416 ft | 378 kts | 290° |
| 2026-04-20 13:01 | 61.50960 | 74.19396 | 33695 ft | 379 kts | 288° |
| 2026-04-20 13:01 | 61.51819 | 74.14167 | 33972 ft | 381 kts | 288° |
| 2026-04-20 13:02 | 61.52682 | 74.08898 | 34223 ft | 382 kts | 288° |
| 2026-04-20 13:02 | 61.54374 | 73.98515 | 34287 ft | 374 kts | 288° |
| 2026-04-20 13:03 | 61.56049 | 73.88207 | 34291 ft | 373 kts | 288° |
| 2026-04-20 13:03 | 61.57714 | 73.77889 | 34289 ft | 373 kts | 288° |
| 2026-04-20 13:04 | 61.59368 | 73.67573 | 34291 ft | 373 kts | 288° |
| 2026-04-20 13:04 | 61.61016 | 73.57235 | 34296 ft | 373 kts | 288° |
| 2026-04-20 13:05 | 61.62658 | 73.46873 | 34292 ft | 373 kts | 287° |
| 2026-04-20 13:05 | 61.64293 | 73.36487 | 34295 ft | 373 kts | 287° |
| 2026-04-20 13:06 | 61.65919 | 73.26102 | 34293 ft | 374 kts | 287° |
| 2026-04-20 13:06 | 61.67537 | 73.15706 | 34294 ft | 374 kts | 287° |
| 2026-04-20 13:07 | 61.69144 | 73.05327 | 34285 ft | 374 kts | 287° |
| 2026-04-20 13:07 | 61.70752 | 72.94873 | 34286 ft | 375 kts | 287° |
| 2026-04-20 13:08 | 61.72352 | 72.84420 | 34282 ft | 375 kts | 287° |
| 2026-04-20 13:08 | 61.73949 | 72.73936 | 34286 ft | 375 kts | 287° |
| 2026-04-20 13:09 | 61.75537 | 72.63423 | 34280 ft | 376 kts | 287° |
| 2026-04-20 13:09 | 61.77121 | 72.52831 | 34286 ft | 376 kts | 287° |
| 2026-04-20 13:10 | 61.78692 | 72.42292 | 34285 ft | 376 kts | 287° |
| 2026-04-20 13:10 | 61.80268 | 72.31729 | 34286 ft | 377 kts | 287° |
| 2026-04-20 13:11 | 61.81841 | 72.21144 | 34281 ft | 377 kts | 287° |
| 2026-04-20 13:11 | 61.83398 | 72.10552 | 34278 ft | 377 kts | 287° |
| 2026-04-20 13:12 | 61.84952 | 71.99946 | 34277 ft | 377 kts | 287° |
| 2026-04-20 13:12 | 61.86493 | 71.89369 | 34276 ft | 377 kts | 287° |
| 2026-04-20 13:13 | 61.88037 | 71.78708 | 34282 ft | 378 kts | 287° |
| 2026-04-20 13:13 | 61.89570 | 71.68026 | 34282 ft | 378 kts | 286° |
| 2026-04-20 13:14 | 61.91092 | 71.57352 | 34278 ft | 378 kts | 286° |
| 2026-04-20 13:14 | 61.92599 | 71.46638 | 34278 ft | 378 kts | 286° |
| 2026-04-20 13:15 | 61.94111 | 71.35911 | 34279 ft | 379 kts | 286° |
| 2026-04-20 13:15 | 61.95626 | 71.25252 | 34286 ft | 379 kts | 286° |
| 2026-04-20 13:16 | 61.97139 | 71.14501 | 34288 ft | 379 kts | 286° |
| 2026-04-20 13:16 | 61.98635 | 71.03718 | 34284 ft | 379 kts | 286° |
| 2026-04-20 13:17 | 62.00084 | 70.92910 | 34284 ft | 380 kts | 284° |
| 2026-04-20 13:17 | 62.01346 | 70.81976 | 34285 ft | 380 kts | 283° |
| 2026-04-20 13:18 | 62.02546 | 70.70991 | 34286 ft | 380 kts | 283° |
| 2026-04-20 13:18 | 62.03758 | 70.60013 | 34287 ft | 381 kts | 283° |
| 2026-04-20 13:19 | 62.04989 | 70.49000 | 34287 ft | 381 kts | 283° |
| 2026-04-20 13:19 | 62.06205 | 70.38057 | 34292 ft | 381 kts | 283° |
| 2026-04-20 13:20 | 62.07422 | 70.27017 | 34287 ft | 382 kts | 283° |
| 2026-04-20 13:20 | 62.08629 | 70.15952 | 34287 ft | 382 kts | 283° |
| 2026-04-20 13:21 | 62.09821 | 70.04883 | 34289 ft | 382 kts | 283° |
| 2026-04-20 13:21 | 62.11010 | 69.93799 | 34290 ft | 383 kts | 283° |
| 2026-04-20 13:22 | 62.12188 | 69.82703 | 34293 ft | 383 kts | 283° |
| 2026-04-20 13:22 | 62.13361 | 69.71609 | 34291 ft | 383 kts | 283° |
| 2026-04-20 13:23 | 62.14531 | 69.60484 | 34295 ft | 383 kts | 283° |
| 2026-04-20 13:23 | 62.15682 | 69.49363 | 34295 ft | 383 kts | 283° |
| 2026-04-20 13:24 | 62.16821 | 69.38222 | 34290 ft | 383 kts | 283° |
| 2026-04-20 13:24 | 62.17764 | 69.28968 | 34286 ft | 383 kts | 282° |
| 2026-04-20 13:25 | 62.18893 | 69.17809 | 34290 ft | 383 kts | 282° |
| 2026-04-20 13:25 | 62.20009 | 69.06648 | 34289 ft | 383 kts | 282° |
| 2026-04-20 13:26 | 62.21126 | 68.95441 | 34288 ft | 383 kts | 282° |
| 2026-04-20 13:26 | 62.22232 | 68.84253 | 34291 ft | 383 kts | 282° |
| 2026-04-20 13:27 | 62.23321 | 68.73098 | 34291 ft | 384 kts | 282° |
| 2026-04-20 13:27 | 62.24406 | 68.61877 | 34291 ft | 384 kts | 282° |
| 2026-04-20 13:28 | 62.25483 | 68.50649 | 34292 ft | 384 kts | 282° |
| 2026-04-20 13:28 | 62.26548 | 68.39420 | 34290 ft | 384 kts | 282° |
| 2026-04-20 13:29 | 62.27605 | 68.28141 | 34293 ft | 384 kts | 282° |
| 2026-04-20 13:29 | 62.28657 | 68.16883 | 34294 ft | 384 kts | 282° |
| 2026-04-20 13:30 | 62.29695 | 68.05681 | 34293 ft | 385 kts | 282° |
| 2026-04-20 13:30 | 62.30724 | 67.94389 | 34291 ft | 385 kts | 281° |
| 2026-04-20 13:31 | 62.31739 | 67.83090 | 34290 ft | 385 kts | 281° |
| 2026-04-20 13:31 | 62.32749 | 67.71781 | 34290 ft | 385 kts | 281° |
| 2026-04-20 13:32 | 62.33760 | 67.60469 | 34285 ft | 385 kts | 281° |
| 2026-04-20 13:32 | 62.34769 | 67.49136 | 34288 ft | 385 kts | 281° |
| 2026-04-20 13:33 | 62.35757 | 67.37765 | 34288 ft | 385 kts | 281° |
| 2026-04-20 13:33 | 62.36735 | 67.26389 | 34289 ft | 386 kts | 281° |
| 2026-04-20 13:34 | 62.37706 | 67.15025 | 34285 ft | 386 kts | 281° |
| 2026-04-20 13:34 | 62.38657 | 67.03715 | 34285 ft | 386 kts | 281° |
| 2026-04-20 13:35 | 62.39610 | 66.92327 | 34287 ft | 386 kts | 281° |
| 2026-04-20 13:35 | 62.40557 | 66.80942 | 34285 ft | 386 kts | 281° |
| 2026-04-20 13:36 | 62.41496 | 66.69528 | 34278 ft | 386 kts | 280° |
| 2026-04-20 13:36 | 62.42411 | 66.58113 | 34280 ft | 386 kts | 280° |
| 2026-04-20 13:37 | 62.43325 | 66.46702 | 34281 ft | 386 kts | 280° |
| 2026-04-20 13:37 | 62.44231 | 66.35253 | 34281 ft | 387 kts | 280° |
| 2026-04-20 13:38 | 62.45131 | 66.23792 | 34277 ft | 387 kts | 280° |
| 2026-04-20 13:38 | 62.46021 | 66.12308 | 34279 ft | 387 kts | 280° |
| 2026-04-20 13:39 | 62.46773 | 66.00771 | 34280 ft | 388 kts | 274° |
| 2026-04-20 13:39 | 62.46984 | 65.89097 | 34279 ft | 388 kts | 274° |
| 2026-04-20 13:40 | 62.47190 | 65.77420 | 34279 ft | 388 kts | 274° |
| 2026-04-20 13:40 | 62.47392 | 65.65749 | 34280 ft | 389 kts | 273° |
| 2026-04-20 13:41 | 62.47577 | 65.54052 | 34277 ft | 389 kts | 273° |
| 2026-04-20 13:41 | 62.47757 | 65.42361 | 34279 ft | 389 kts | 273° |
| 2026-04-20 13:42 | 62.47924 | 65.30658 | 34280 ft | 389 kts | 273° |
| 2026-04-20 13:42 | 62.48152 | 65.13097 | 34282 ft | 390 kts | 273° |
| 2026-04-20 13:43 | 62.48288 | 65.01365 | 34283 ft | 390 kts | 272° |
| 2026-04-20 13:43 | 62.48426 | 64.89642 | 34282 ft | 390 kts | 273° |
| 2026-04-20 13:44 | 62.48634 | 64.77905 | 34280 ft | 390 kts | 274° |
| 2026-04-20 13:44 | 62.48846 | 64.66173 | 34288 ft | 390 kts | 273° |
| 2026-04-20 13:45 | 62.49036 | 64.54430 | 34298 ft | 390 kts | 273° |
| 2026-04-20 13:45 | 62.49210 | 64.42691 | 34287 ft | 390 kts | 273° |
| 2026-04-20 13:46 | 62.49374 | 64.31017 | 34283 ft | 390 kts | 273° |
| 2026-04-20 13:46 | 62.49529 | 64.19268 | 34285 ft | 390 kts | 272° |
| 2026-04-20 13:47 | 62.49676 | 64.07508 | 34289 ft | 390 kts | 272° |
| 2026-04-20 13:47 | 62.49807 | 63.95815 | 34283 ft | 390 kts | 272° |
| 2026-04-20 13:48 | 62.49932 | 63.84080 | 34283 ft | 390 kts | 272° |
| 2026-04-20 13:48 | 62.50045 | 63.72311 | 34286 ft | 390 kts | 272° |
| 2026-04-20 13:49 | 62.50155 | 63.60559 | 34285 ft | 390 kts | 272° |
| 2026-04-20 13:49 | 62.50255 | 63.48782 | 34294 ft | 390 kts | 272° |
| 2026-04-20 13:50 | 62.50339 | 63.37023 | 34282 ft | 391 kts | 272° |
| 2026-04-20 13:50 | 62.50420 | 63.25274 | 34276 ft | 391 kts | 272° |
| 2026-04-20 13:51 | 62.50487 | 63.13508 | 34278 ft | 391 kts | 271° |
| 2026-04-20 13:51 | 62.50543 | 63.01734 | 34275 ft | 391 kts | 271° |
| 2026-04-20 13:52 | 62.50590 | 62.89965 | 34274 ft | 391 kts | 271° |
| 2026-04-20 13:52 | 62.50622 | 62.78187 | 34271 ft | 391 kts | 271° |
| 2026-04-20 13:53 | 62.50645 | 62.66392 | 34276 ft | 392 kts | 271° |
| 2026-04-20 13:53 | 62.50663 | 62.54659 | 34277 ft | 392 kts | 271° |
| 2026-04-20 13:54 | 62.50674 | 62.42847 | 34277 ft | 392 kts | 271° |
| 2026-04-20 13:54 | 62.50676 | 62.31018 | 34280 ft | 393 kts | 271° |
| 2026-04-20 13:55 | 62.50661 | 62.19180 | 34277 ft | 393 kts | 270° |
| 2026-04-20 13:55 | 62.50631 | 62.07353 | 34276 ft | 393 kts | 270° |
| 2026-04-20 13:56 | 62.50602 | 61.97443 | 34275 ft | 393 kts | 270° |
| 2026-04-20 13:56 | 62.50565 | 61.85686 | 34275 ft | 393 kts | 270° |
| 2026-04-20 13:57 | 62.50514 | 61.73854 | 34274 ft | 393 kts | 270° |
| 2026-04-20 13:57 | 62.50457 | 61.62003 | 34277 ft | 393 kts | 270° |
| 2026-04-20 13:58 | 62.50385 | 61.50163 | 34277 ft | 393 kts | 270° |
| 2026-04-20 13:58 | 62.50302 | 61.38229 | 34282 ft | 393 kts | 270° |
| 2026-04-20 13:59 | 62.50215 | 61.26473 | 34278 ft | 393 kts | 270° |
| 2026-04-20 13:59 | 62.50117 | 61.14610 | 34275 ft | 393 kts | 269° |
| 2026-04-20 14:00 | 62.49995 | 61.02774 | 34275 ft | 393 kts | 269° |
| 2026-04-20 14:00 | 62.49874 | 60.90918 | 34274 ft | 394 kts | 269° |
| 2026-04-20 14:01 | 62.49745 | 60.79066 | 34275 ft | 394 kts | 269° |
| 2026-04-20 14:01 | 62.49611 | 60.67194 | 34269 ft | 394 kts | 269° |
| 2026-04-20 14:02 | 62.49454 | 60.55337 | 34271 ft | 394 kts | 269° |
| 2026-04-20 14:02 | 62.49285 | 60.43482 | 34269 ft | 394 kts | 269° |
| 2026-04-20 14:03 | 62.49117 | 60.31623 | 34267 ft | 394 kts | 269° |
| 2026-04-20 14:03 | 62.48936 | 60.19825 | 34263 ft | 394 kts | 269° |
| 2026-04-20 14:04 | 62.48742 | 60.07969 | 34265 ft | 395 kts | 268° |
| 2026-04-20 14:04 | 62.48538 | 59.96101 | 34270 ft | 395 kts | 268° |
| 2026-04-20 14:05 | 62.48320 | 59.84159 | 34266 ft | 395 kts | 268° |
| 2026-04-20 14:05 | 62.48101 | 59.72371 | 34266 ft | 395 kts | 268° |
| 2026-04-20 14:06 | 62.47870 | 59.60489 | 34262 ft | 395 kts | 268° |
| 2026-04-20 14:06 | 62.47741 | 59.48625 | 34257 ft | 395 kts | 270° |
| 2026-04-20 14:07 | 62.47771 | 59.36742 | 34256 ft | 395 kts | 271° |
| 2026-04-20 14:07 | 62.47807 | 59.24834 | 34254 ft | 395 kts | 270° |
| 2026-04-20 14:08 | 62.47795 | 59.12993 | 34255 ft | 395 kts | 270° |
| 2026-04-20 14:08 | 62.47746 | 59.01105 | 34246 ft | 395 kts | 269° |
| 2026-04-20 14:09 | 62.47682 | 58.89218 | 34245 ft | 395 kts | 269° |
| 2026-04-20 14:09 | 62.47620 | 58.77327 | 34240 ft | 396 kts | 269° |
| 2026-04-20 14:10 | 62.47548 | 58.65411 | 34238 ft | 396 kts | 269° |
| 2026-04-20 14:10 | 62.47468 | 58.53516 | 34242 ft | 396 kts | 269° |
| 2026-04-20 14:11 | 62.47379 | 58.41586 | 34237 ft | 396 kts | 269° |
| 2026-04-20 14:11 | 62.47284 | 58.29669 | 34233 ft | 396 kts | 269° |
| 2026-04-20 14:12 | 62.47173 | 58.17739 | 34232 ft | 396 kts | 269° |
| 2026-04-20 14:12 | 62.47050 | 58.05824 | 34232 ft | 396 kts | 269° |
| 2026-04-20 14:13 | 62.46921 | 57.93901 | 34227 ft | 396 kts | 269° |
| 2026-04-20 14:13 | 62.46779 | 57.81974 | 34227 ft | 397 kts | 268° |
| 2026-04-20 14:14 | 62.46627 | 57.70118 | 34227 ft | 397 kts | 268° |
| 2026-04-20 14:14 | 62.46467 | 57.58197 | 34221 ft | 397 kts | 268° |
| 2026-04-20 14:15 | 62.46292 | 57.46249 | 34221 ft | 397 kts | 268° |
| 2026-04-20 14:15 | 62.46111 | 57.34304 | 34215 ft | 397 kts | 268° |
| 2026-04-20 14:16 | 62.45919 | 57.22346 | 34220 ft | 397 kts | 268° |
| 2026-04-20 14:16 | 62.45715 | 57.10480 | 34220 ft | 398 kts | 268° |
| 2026-04-20 14:17 | 62.45499 | 56.98523 | 34221 ft | 398 kts | 268° |
| 2026-04-20 14:17 | 62.45277 | 56.86559 | 34222 ft | 398 kts | 268° |
| 2026-04-20 14:18 | 62.45045 | 56.74591 | 34216 ft | 399 kts | 267° |
| 2026-04-20 14:18 | 62.44800 | 56.62621 | 34216 ft | 399 kts | 267° |
| 2026-04-20 14:19 | 62.44548 | 56.50632 | 34215 ft | 399 kts | 267° |
| 2026-04-20 14:19 | 62.44283 | 56.38633 | 34213 ft | 400 kts | 267° |
| 2026-04-20 14:20 | 62.44002 | 56.26628 | 34208 ft | 400 kts | 267° |
| 2026-04-20 14:20 | 62.43717 | 56.14606 | 34209 ft | 401 kts | 267° |
| 2026-04-20 14:21 | 62.43418 | 56.02576 | 34208 ft | 401 kts | 267° |
| 2026-04-20 14:21 | 62.43104 | 55.90550 | 34209 ft | 401 kts | 266° |
| 2026-04-20 14:22 | 62.42785 | 55.78503 | 34209 ft | 401 kts | 266° |
| 2026-04-20 14:22 | 62.42453 | 55.66535 | 34206 ft | 402 kts | 266° |
| 2026-04-20 14:23 | 62.42114 | 55.54472 | 34208 ft | 402 kts | 266° |
| 2026-04-20 14:23 | 62.41773 | 55.42423 | 34203 ft | 402 kts | 266° |
| 2026-04-20 14:24 | 62.41417 | 55.30356 | 34202 ft | 402 kts | 266° |
| 2026-04-20 14:24 | 62.41037 | 55.18306 | 34199 ft | 403 kts | 266° |
| 2026-04-20 14:25 | 62.40658 | 55.06236 | 34199 ft | 403 kts | 266° |
| 2026-04-20 14:25 | 62.40296 | 54.94135 | 34195 ft | 404 kts | 266° |
| 2026-04-20 14:26 | 62.39927 | 54.82115 | 34198 ft | 404 kts | 266° |
| 2026-04-20 14:26 | 62.39532 | 54.70011 | 34200 ft | 405 kts | 266° |
| 2026-04-20 14:27 | 62.39123 | 54.57902 | 34198 ft | 405 kts | 266° |
| 2026-04-20 14:27 | 62.38712 | 54.45766 | 34194 ft | 406 kts | 266° |
| 2026-04-20 14:28 | 62.38291 | 54.33622 | 34206 ft | 406 kts | 265° |
| 2026-04-20 14:28 | 62.37920 | 54.23444 | 34196 ft | 407 kts | 265° |
| 2026-04-20 14:29 | 62.37472 | 54.11347 | 34196 ft | 407 kts | 265° |
| 2026-04-20 14:29 | 62.37013 | 53.99161 | 34189 ft | 408 kts | 265° |
| 2026-04-20 14:30 | 62.36545 | 53.86980 | 34190 ft | 408 kts | 265° |
| 2026-04-20 14:30 | 62.36079 | 53.74755 | 34191 ft | 409 kts | 265° |
| 2026-04-20 14:31 | 62.35595 | 53.62539 | 34189 ft | 409 kts | 265° |
| 2026-04-20 14:31 | 62.35096 | 53.50288 | 34194 ft | 410 kts | 265° |
| 2026-04-20 14:32 | 62.34597 | 53.38041 | 34188 ft | 410 kts | 265° |
| 2026-04-20 14:32 | 62.34096 | 53.25866 | 34188 ft | 411 kts | 265° |
| 2026-04-20 14:33 | 62.33583 | 53.13576 | 34190 ft | 411 kts | 265° |
| 2026-04-20 14:33 | 62.33055 | 53.01311 | 34187 ft | 412 kts | 265° |
| 2026-04-20 14:34 | 62.32515 | 52.89042 | 34185 ft | 412 kts | 264° |
| 2026-04-20 14:34 | 62.31962 | 52.76764 | 34183 ft | 413 kts | 264° |
| 2026-04-20 14:35 | 62.31395 | 52.64461 | 34182 ft | 413 kts | 264° |
| 2026-04-20 14:35 | 62.30812 | 52.52156 | 34179 ft | 413 kts | 264° |
| 2026-04-20 14:36 | 62.30224 | 52.39847 | 34183 ft | 414 kts | 264° |
| 2026-04-20 14:36 | 62.29635 | 52.27533 | 34182 ft | 414 kts | 264° |
| 2026-04-20 14:37 | 62.29022 | 52.15208 | 34182 ft | 414 kts | 264° |
| 2026-04-20 14:37 | 62.28396 | 52.02895 | 34174 ft | 415 kts | 264° |
| 2026-04-20 14:38 | 62.27761 | 51.90561 | 34178 ft | 415 kts | 264° |
| 2026-04-20 14:38 | 62.27131 | 51.78299 | 34172 ft | 416 kts | 264° |
| 2026-04-20 14:39 | 62.26479 | 51.65948 | 34175 ft | 416 kts | 264° |
| 2026-04-20 14:39 | 62.25811 | 51.53525 | 34177 ft | 416 kts | 263° |
| 2026-04-20 14:40 | 62.25124 | 51.41198 | 34174 ft | 417 kts | 263° |
| 2026-04-20 14:40 | 62.24425 | 51.28820 | 34174 ft | 417 kts | 263° |
| 2026-04-20 14:41 | 62.23731 | 51.16531 | 34176 ft | 417 kts | 263° |
| 2026-04-20 14:41 | 62.23023 | 51.04154 | 34177 ft | 418 kts | 263° |
| 2026-04-20 14:42 | 62.22301 | 50.91773 | 34178 ft | 418 kts | 263° |
| 2026-04-20 14:42 | 62.21569 | 50.79381 | 34178 ft | 418 kts | 263° |
| 2026-04-20 14:43 | 62.20818 | 50.67018 | 34175 ft | 418 kts | 263° |
| 2026-04-20 14:43 | 62.20052 | 50.54638 | 34178 ft | 418 kts | 263° |
| 2026-04-20 14:44 | 62.19299 | 50.42287 | 34171 ft | 418 kts | 263° |
| 2026-04-20 14:44 | 62.18539 | 50.29919 | 34173 ft | 419 kts | 263° |
| 2026-04-20 14:45 | 62.17767 | 50.17557 | 34174 ft | 419 kts | 263° |
| 2026-04-20 14:45 | 62.16980 | 50.05174 | 34174 ft | 419 kts | 263° |
| 2026-04-20 14:46 | 62.16175 | 49.92816 | 34170 ft | 420 kts | 263° |
| 2026-04-20 14:46 | 62.15364 | 49.80436 | 34174 ft | 420 kts | 263° |
| 2026-04-20 14:47 | 62.14541 | 49.68113 | 34180 ft | 421 kts | 263° |
| 2026-04-20 14:48 | 62.13280 | 49.49532 | 34181 ft | 421 kts | 263° |
| 2026-04-20 14:48 | 62.12428 | 49.37151 | 34179 ft | 421 kts | 263° |
| 2026-04-20 14:49 | 62.11562 | 49.24696 | 34176 ft | 421 kts | 262° |
| 2026-04-20 14:49 | 62.10684 | 49.12376 | 34175 ft | 422 kts | 262° |
| 2026-04-20 14:50 | 62.09710 | 49.00026 | 34181 ft | 422 kts | 261° |
| 2026-04-20 14:50 | 62.08663 | 48.87676 | 34173 ft | 422 kts | 261° |
| 2026-04-20 14:51 | 62.07613 | 48.75331 | 34174 ft | 423 kts | 261° |
| 2026-04-20 14:51 | 62.06563 | 48.62969 | 34169 ft | 423 kts | 261° |
| 2026-04-20 14:52 | 62.05507 | 48.50605 | 34167 ft | 423 kts | 261° |
| 2026-04-20 14:52 | 62.04430 | 48.38270 | 34165 ft | 423 kts | 261° |
| 2026-04-20 14:53 | 62.03348 | 48.25932 | 34161 ft | 424 kts | 261° |
| 2026-04-20 14:53 | 62.02260 | 48.13583 | 34163 ft | 424 kts | 261° |
| 2026-04-20 14:54 | 62.01153 | 48.01257 | 34162 ft | 424 kts | 261° |
| 2026-04-20 14:54 | 62.00032 | 47.88902 | 34159 ft | 425 kts | 261° |
| 2026-04-20 14:55 | 61.98897 | 47.76556 | 34162 ft | 425 kts | 261° |
| 2026-04-20 14:55 | 61.97752 | 47.64172 | 34161 ft | 426 kts | 261° |
| 2026-04-20 14:56 | 61.96592 | 47.51867 | 34156 ft | 427 kts | 261° |
| 2026-04-20 14:56 | 61.95419 | 47.39495 | 34157 ft | 427 kts | 260° |
| 2026-04-20 14:57 | 61.94246 | 47.27088 | 34156 ft | 428 kts | 261° |
| 2026-04-20 14:57 | 61.93053 | 47.14671 | 34158 ft | 429 kts | 260° |
| 2026-04-20 14:58 | 61.91837 | 47.02226 | 34159 ft | 430 kts | 260° |
| 2026-04-20 14:58 | 61.90618 | 46.89788 | 34156 ft | 430 kts | 260° |
| 2026-04-20 14:59 | 61.89342 | 46.77341 | 34160 ft | 431 kts | 259° |
| 2026-04-20 14:59 | 61.88012 | 46.64983 | 34163 ft | 432 kts | 259° |
| 2026-04-20 15:00 | 61.86648 | 46.52557 | 34161 ft | 433 kts | 259° |
| 2026-04-20 15:00 | 61.85297 | 46.40122 | 34162 ft | 433 kts | 259° |
| 2026-04-20 15:01 | 61.84161 | 46.29700 | 34161 ft | 434 kts | 259° |
| 2026-04-20 15:01 | 61.82797 | 46.17241 | 34162 ft | 434 kts | 259° |
| 2026-04-20 15:02 | 61.81408 | 46.04858 | 34160 ft | 435 kts | 259° |
| 2026-04-20 15:02 | 61.80002 | 45.92372 | 34163 ft | 436 kts | 259° |
| 2026-04-20 15:03 | 61.78595 | 45.79882 | 34158 ft | 436 kts | 259° |
| 2026-04-20 15:03 | 61.77173 | 45.67364 | 34161 ft | 437 kts | 258° |
| 2026-04-20 15:04 | 61.75736 | 45.54941 | 34162 ft | 438 kts | 258° |
| 2026-04-20 15:04 | 61.74274 | 45.42428 | 34161 ft | 438 kts | 258° |
| 2026-04-20 15:05 | 61.72816 | 45.29994 | 34169 ft | 438 kts | 258° |
| 2026-04-20 15:05 | 61.71332 | 45.17469 | 34169 ft | 439 kts | 258° |
| 2026-04-20 15:06 | 61.69975 | 45.04903 | 34162 ft | 437 kts | 265° |
| 2026-04-20 15:06 | 61.69390 | 44.92241 | 34166 ft | 436 kts | 267° |
| 2026-04-20 15:07 | 61.68801 | 44.79473 | 34164 ft | 437 kts | 266° |
| 2026-04-20 15:07 | 61.68188 | 44.66721 | 34159 ft | 437 kts | 266° |
| 2026-04-20 15:08 | 61.67562 | 44.53963 | 34164 ft | 438 kts | 266° |
| 2026-04-20 15:08 | 61.66926 | 44.41180 | 34161 ft | 439 kts | 266° |
| 2026-04-20 15:09 | 61.66281 | 44.28382 | 34164 ft | 439 kts | 266° |
| 2026-04-20 15:09 | 61.65619 | 44.15663 | 34162 ft | 439 kts | 266° |
| 2026-04-20 15:10 | 61.64938 | 44.02844 | 34164 ft | 440 kts | 266° |
| 2026-04-20 15:10 | 61.64244 | 43.90033 | 34165 ft | 440 kts | 266° |
| 2026-04-20 15:11 | 61.63547 | 43.77215 | 34160 ft | 441 kts | 266° |
| 2026-04-20 15:11 | 61.62841 | 43.64475 | 34165 ft | 441 kts | 266° |
| 2026-04-20 15:12 | 61.62110 | 43.51639 | 34171 ft | 441 kts | 266° |
| 2026-04-20 15:12 | 61.61373 | 43.38821 | 34165 ft | 442 kts | 266° |
| 2026-04-20 15:13 | 61.60627 | 43.26003 | 34169 ft | 442 kts | 266° |
| 2026-04-20 15:13 | 61.59862 | 43.13179 | 34164 ft | 442 kts | 266° |
| 2026-04-20 15:14 | 61.59089 | 43.00337 | 34165 ft | 442 kts | 265° |
| 2026-04-20 15:14 | 61.58296 | 42.87490 | 34170 ft | 443 kts | 265° |
| 2026-04-20 15:15 | 61.57493 | 42.74655 | 34166 ft | 443 kts | 265° |
| 2026-04-20 15:15 | 61.56686 | 42.61849 | 34170 ft | 443 kts | 265° |
| 2026-04-20 15:16 | 61.55861 | 42.49038 | 34174 ft | 443 kts | 265° |
| 2026-04-20 15:16 | 61.55025 | 42.36207 | 34170 ft | 444 kts | 265° |
| 2026-04-20 15:17 | 61.53715 | 42.23478 | 34178 ft | 447 kts | 258° |
| 2026-04-20 15:17 | 61.52194 | 42.10906 | 34183 ft | 447 kts | 258° |
| 2026-04-20 15:18 | 61.50647 | 41.98288 | 34178 ft | 447 kts | 258° |
| 2026-04-20 15:18 | 61.49088 | 41.85630 | 34177 ft | 448 kts | 258° |
| 2026-04-20 15:19 | 61.47528 | 41.72992 | 34177 ft | 448 kts | 258° |
| 2026-04-20 15:19 | 61.45965 | 41.60445 | 34178 ft | 448 kts | 258° |
| 2026-04-20 15:20 | 61.44377 | 41.47826 | 34177 ft | 448 kts | 258° |
| 2026-04-20 15:20 | 61.42772 | 41.35219 | 34181 ft | 448 kts | 258° |
| 2026-04-20 15:21 | 61.41176 | 41.22695 | 34181 ft | 448 kts | 258° |
| 2026-04-20 15:21 | 61.39553 | 41.10094 | 34178 ft | 448 kts | 258° |
| 2026-04-20 15:22 | 61.37919 | 40.97527 | 34179 ft | 449 kts | 258° |
| 2026-04-20 15:22 | 61.36267 | 40.84935 | 34179 ft | 449 kts | 257° |
| 2026-04-20 15:23 | 61.34607 | 40.72377 | 34177 ft | 450 kts | 257° |
| 2026-04-20 15:23 | 61.32927 | 40.59813 | 34176 ft | 450 kts | 257° |
| 2026-04-20 15:24 | 61.31235 | 40.47260 | 34175 ft | 450 kts | 257° |
| 2026-04-20 15:24 | 61.29544 | 40.34698 | 34176 ft | 451 kts | 257° |
| 2026-04-20 15:25 | 61.27837 | 40.22158 | 34179 ft | 451 kts | 257° |
| 2026-04-20 15:25 | 61.26108 | 40.09621 | 34179 ft | 451 kts | 257° |
| 2026-04-20 15:26 | 61.24363 | 39.97088 | 34182 ft | 451 kts | 257° |
| 2026-04-20 15:26 | 61.22620 | 39.84567 | 34179 ft | 451 kts | 257° |
| 2026-04-20 15:27 | 61.20856 | 39.72032 | 34181 ft | 451 kts | 257° |
| 2026-04-20 15:27 | 61.19087 | 39.59595 | 34176 ft | 452 kts | 256° |
| 2026-04-20 15:28 | 61.17302 | 39.47092 | 34172 ft | 452 kts | 257° |
| 2026-04-20 15:28 | 61.15512 | 39.34610 | 34170 ft | 452 kts | 256° |
| 2026-04-20 15:29 | 61.13697 | 39.22136 | 34171 ft | 452 kts | 256° |
| 2026-04-20 15:29 | 61.11871 | 39.09656 | 34163 ft | 453 kts | 256° |
| 2026-04-20 15:30 | 61.10043 | 38.97188 | 34168 ft | 453 kts | 256° |
| 2026-04-20 15:30 | 61.08203 | 38.84740 | 34164 ft | 453 kts | 256° |
| 2026-04-20 15:31 | 61.06655 | 38.74400 | 34164 ft | 453 kts | 256° |
| 2026-04-20 15:31 | 61.04465 | 38.59887 | 34167 ft | 454 kts | 256° |
| 2026-04-20 15:32 | 61.02895 | 38.49546 | 34167 ft | 454 kts | 256° |
| 2026-04-20 15:32 | 61.01000 | 38.37093 | 34169 ft | 454 kts | 256° |
| 2026-04-20 15:33 | 60.99100 | 38.24665 | 34171 ft | 455 kts | 255° |
| 2026-04-20 15:33 | 60.97176 | 38.12256 | 34168 ft | 455 kts | 255° |
| 2026-04-20 15:34 | 60.95234 | 37.99828 | 34169 ft | 456 kts | 255° |
| 2026-04-20 15:34 | 60.93286 | 37.87413 | 34171 ft | 456 kts | 255° |
| 2026-04-20 15:35 | 60.91327 | 37.74994 | 34168 ft | 456 kts | 255° |
| 2026-04-20 15:35 | 60.89352 | 37.62584 | 34171 ft | 457 kts | 255° |
| 2026-04-20 15:36 | 60.87352 | 37.50188 | 34175 ft | 457 kts | 255° |
| 2026-04-20 15:36 | 60.85349 | 37.37789 | 34177 ft | 458 kts | 255° |
| 2026-04-20 15:37 | 60.83329 | 37.25412 | 34174 ft | 458 kts | 254° |
| 2026-04-20 15:37 | 60.81207 | 37.13083 | 34180 ft | 459 kts | 253° |
| 2026-04-20 15:38 | 60.79037 | 37.00750 | 34182 ft | 459 kts | 253° |
| 2026-04-20 15:38 | 60.76888 | 36.88514 | 34185 ft | 459 kts | 253° |
| 2026-04-20 15:39 | 60.74719 | 36.76188 | 34190 ft | 460 kts | 253° |
| 2026-04-20 15:39 | 60.72540 | 36.63903 | 34191 ft | 460 kts | 253° |
| 2026-04-20 15:40 | 60.70348 | 36.51603 | 34194 ft | 460 kts | 253° |
| 2026-04-20 15:40 | 60.68147 | 36.39310 | 34196 ft | 461 kts | 252° |
| 2026-04-20 15:41 | 60.65921 | 36.27011 | 34203 ft | 461 kts | 252° |
| 2026-04-20 15:41 | 60.63699 | 36.14812 | 34208 ft | 462 kts | 252° |
| 2026-04-20 15:42 | 60.61451 | 36.02528 | 34209 ft | 462 kts | 252° |
| 2026-04-20 15:42 | 60.59188 | 35.90256 | 34208 ft | 462 kts | 252° |
| 2026-04-20 15:43 | 60.56918 | 35.78011 | 34208 ft | 462 kts | 252° |
| 2026-04-20 15:43 | 60.54639 | 35.65788 | 34207 ft | 462 kts | 252° |
| 2026-04-20 15:44 | 60.52353 | 35.53610 | 34206 ft | 463 kts | 252° |
| 2026-04-20 15:44 | 60.50048 | 35.41404 | 34204 ft | 463 kts | 251° |
| 2026-04-20 15:45 | 60.47726 | 35.29190 | 34210 ft | 464 kts | 251° |
| 2026-04-20 15:45 | 60.45393 | 35.17002 | 34208 ft | 463 kts | 252° |
| 2026-04-20 15:46 | 60.43676 | 35.04473 | 34207 ft | 461 kts | 259° |
| 2026-04-20 15:46 | 60.42107 | 34.91948 | 34200 ft | 461 kts | 259° |
| 2026-04-20 15:47 | 60.40520 | 34.79370 | 34201 ft | 461 kts | 259° |
| 2026-04-20 15:47 | 60.38915 | 34.66777 | 34198 ft | 462 kts | 259° |
| 2026-04-20 15:48 | 60.37298 | 34.54216 | 34197 ft | 462 kts | 258° |
| 2026-04-20 15:48 | 60.35666 | 34.41637 | 34200 ft | 463 kts | 258° |
| 2026-04-20 15:49 | 60.34025 | 34.29045 | 34200 ft | 463 kts | 258° |
| 2026-04-20 15:49 | 60.32369 | 34.16519 | 34201 ft | 464 kts | 258° |
| 2026-04-20 15:50 | 60.30689 | 34.03929 | 34203 ft | 464 kts | 258° |
| 2026-04-20 15:50 | 60.28997 | 33.91337 | 34200 ft | 464 kts | 258° |
| 2026-04-20 15:51 | 60.27308 | 33.78767 | 34201 ft | 465 kts | 258° |
| 2026-04-20 15:51 | 60.25597 | 33.66159 | 34201 ft | 466 kts | 258° |
| 2026-04-20 15:52 | 60.23868 | 33.53576 | 34204 ft | 466 kts | 257° |
| 2026-04-20 15:52 | 60.22129 | 33.41076 | 34204 ft | 466 kts | 257° |
| 2026-04-20 15:53 | 60.20373 | 33.28483 | 34096 ft | 468 kts | 257° |
| 2026-04-20 15:53 | 60.19488 | 33.22164 | 33796 ft | 468 kts | 257° |
| 2026-04-20 15:53 | 60.18603 | 33.15889 | 33225 ft | 465 kts | 257° |
| 2026-04-20 15:53 | 60.17720 | 33.09657 | 32719 ft | 462 kts | 257° |
| 2026-04-20 15:54 | 60.16838 | 33.03462 | 32191 ft | 459 kts | 257° |
| 2026-04-20 15:54 | 60.15966 | 32.97326 | 31681 ft | 456 kts | 257° |
| 2026-04-20 15:54 | 60.15096 | 32.91215 | 31170 ft | 453 kts | 257° |
| 2026-04-20 15:54 | 60.14235 | 32.85158 | 30663 ft | 451 kts | 257° |
| 2026-04-20 15:55 | 60.13368 | 32.79091 | 30129 ft | 450 kts | 257° |
| 2026-04-20 15:55 | 60.12506 | 32.73079 | 29623 ft | 446 kts | 257° |
| 2026-04-20 15:55 | 60.11650 | 32.67137 | 29143 ft | 442 kts | 257° |
| 2026-04-20 15:55 | 60.10795 | 32.61240 | 28667 ft | 439 kts | 257° |
| 2026-04-20 15:56 | 60.09937 | 32.55377 | 28205 ft | 436 kts | 257° |
| 2026-04-20 15:56 | 60.09081 | 32.49567 | 27752 ft | 433 kts | 257° |
| 2026-04-20 15:56 | 60.08229 | 32.43800 | 27312 ft | 430 kts | 256° |
| 2026-04-20 15:56 | 60.07380 | 32.38066 | 26879 ft | 428 kts | 256° |
| 2026-04-20 15:57 | 60.06555 | 32.32435 | 26449 ft | 424 kts | 258° |
| 2026-04-20 15:57 | 60.06042 | 32.26652 | 26012 ft | 417 kts | 270° |
| 2026-04-20 15:57 | 60.05908 | 32.20881 | 25560 ft | 414 kts | 272° |
| 2026-04-20 15:57 | 60.05792 | 32.15131 | 25116 ft | 413 kts | 272° |
| 2026-04-20 15:58 | 60.05665 | 32.09403 | 24666 ft | 411 kts | 272° |
| 2026-04-20 15:58 | 60.05531 | 32.03712 | 24223 ft | 408 kts | 271° |
| 2026-04-20 15:58 | 60.05395 | 31.98035 | 23775 ft | 406 kts | 271° |
| 2026-04-20 15:58 | 60.05258 | 31.92398 | 23293 ft | 403 kts | 271° |
| 2026-04-20 15:59 | 60.05122 | 31.86824 | 22862 ft | 399 kts | 271° |
| 2026-04-20 15:59 | 60.04986 | 31.81285 | 22431 ft | 396 kts | 271° |
| 2026-04-20 15:59 | 60.04851 | 31.75794 | 22005 ft | 393 kts | 271° |
| 2026-04-20 15:59 | 60.04716 | 31.70341 | 21579 ft | 390 kts | 271° |
| 2026-04-20 16:00 | 60.04582 | 31.64943 | 21162 ft | 387 kts | 271° |
| 2026-04-20 16:00 | 60.04442 | 31.59579 | 20742 ft | 385 kts | 271° |
| 2026-04-20 16:00 | 60.04301 | 31.54247 | 20329 ft | 382 kts | 271° |
| 2026-04-20 16:00 | 60.04158 | 31.48951 | 19915 ft | 380 kts | 271° |
| 2026-04-20 16:01 | 60.04015 | 31.43745 | 19510 ft | 377 kts | 271° |
| 2026-04-20 16:01 | 60.03871 | 31.38529 | 19105 ft | 375 kts | 271° |
| 2026-04-20 16:01 | 60.03548 | 31.33348 | 18703 ft | 376 kts | 261° |
| 2026-04-20 16:01 | 60.03018 | 31.28224 | 18260 ft | 374 kts | 261° |
| 2026-04-20 16:02 | 60.02492 | 31.23154 | 17850 ft | 371 kts | 261° |
| 2026-04-20 16:02 | 60.01969 | 31.18115 | 17454 ft | 368 kts | 261° |
| 2026-04-20 16:02 | 60.01448 | 31.13091 | 16980 ft | 368 kts | 261° |
| 2026-04-20 16:02 | 60.00930 | 31.08095 | 16504 ft | 368 kts | 261° |
| 2026-04-20 16:03 | 60.00406 | 31.03071 | 16031 ft | 368 kts | 261° |
| 2026-04-20 16:03 | 60.00058 | 30.99757 | 15722 ft | 368 kts | 261° |
| 2026-04-20 16:03 | 59.99578 | 30.94749 | 15258 ft | 367 kts | 262° |
| 2026-04-20 16:04 | 59.99242 | 30.91370 | 14953 ft | 366 kts | 261° |
| 2026-04-20 16:04 | 59.98721 | 30.86446 | 14508 ft | 366 kts | 260° |
| 2026-04-20 16:04 | 59.98177 | 30.81479 | 14067 ft | 365 kts | 260° |
| 2026-04-20 16:04 | 59.97630 | 30.76536 | 13578 ft | 364 kts | 260° |
| 2026-04-20 16:05 | 59.97083 | 30.71608 | 13086 ft | 360 kts | 260° |
| 2026-04-20 16:05 | 59.96547 | 30.66756 | 12601 ft | 354 kts | 260° |
| 2026-04-20 16:05 | 59.96026 | 30.61996 | 12126 ft | 348 kts | 261° |
| 2026-04-20 16:05 | 59.95848 | 30.57276 | 11653 ft | 335 kts | 281° |
| 2026-04-20 16:06 | 59.96533 | 30.52980 | 11200 ft | 318 kts | 305° |
| 2026-04-20 16:06 | 59.97674 | 30.49342 | 10745 ft | 312 kts | 305° |
| 2026-04-20 16:06 | 59.98540 | 30.45370 | 10306 ft | 311 kts | 295° |
| 2026-04-20 16:06 | 59.99232 | 30.41306 | 9853 ft | 307 kts | 289° |
| 2026-04-20 16:07 | 59.99390 | 30.37047 | 9454 ft | 309 kts | 266° |
| 2026-04-20 16:07 | 59.98981 | 30.32815 | 9077 ft | 309 kts | 260° |
| 2026-04-20 16:07 | 59.98526 | 30.28619 | 8716 ft | 307 kts | 260° |
| 2026-04-20 16:07 | 59.98065 | 30.24468 | 8342 ft | 305 kts | 260° |
| 2026-04-20 16:08 | 59.97605 | 30.20348 | 7978 ft | 302 kts | 260° |
| 2026-04-20 16:08 | 59.97146 | 30.16279 | 7635 ft | 298 kts | 259° |
| 2026-04-20 16:08 | 59.96693 | 30.12266 | 7302 ft | 294 kts | 260° |
| 2026-04-20 16:08 | 59.96255 | 30.08365 | 6977 ft | 287 kts | 260° |
| 2026-04-20 16:09 | 59.95821 | 30.04525 | 6646 ft | 279 kts | 260° |
| 2026-04-20 16:09 | 59.95396 | 30.00780 | 6295 ft | 273 kts | 260° |
| 2026-04-20 16:09 | 59.94981 | 29.97110 | 5952 ft | 269 kts | 260° |
| 2026-04-20 16:09 | 59.94563 | 29.93495 | 5608 ft | 265 kts | 257° |
| 2026-04-20 16:10 | 59.93715 | 29.90272 | 5268 ft | 264 kts | 227° |
| 2026-04-20 16:10 | 59.92228 | 29.88249 | 4925 ft | 257 kts | 197° |
| 2026-04-20 16:10 | 59.90499 | 29.87828 | 4581 ft | 247 kts | 168° |
| 2026-04-20 16:10 | 59.88908 | 29.88875 | 4235 ft | 238 kts | 148° |
| 2026-04-20 16:11 | 59.87408 | 29.90313 | 3897 ft | 239 kts | 148° |
| 2026-04-20 16:11 | 59.85913 | 29.91731 | 3542 ft | 234 kts | 148° |
| 2026-04-20 16:11 | 59.84608 | 29.93476 | 3131 ft | 223 kts | 127° |
| 2026-04-20 16:11 | 59.83795 | 29.95989 | 2847 ft | 206 kts | 104° |
| 2026-04-20 16:12 | 59.83396 | 29.98617 | 2596 ft | 194 kts | 100° |
| 2026-04-20 16:12 | 59.83036 | 30.01062 | 2312 ft | 178 kts | 99° |
| 2026-04-20 16:12 | 59.82702 | 30.03342 | 2077 ft | 167 kts | 99° |
| 2026-04-20 16:12 | 59.82386 | 30.05499 | 1854 ft | 154 kts | 99° |
| 2026-04-20 16:13 | 59.82104 | 30.07415 | 1642 ft | 137 kts | 98° |
| 2026-04-20 16:13 | 59.81848 | 30.09163 | 1452 ft | 128 kts | 96° |
| 2026-04-20 16:13 | 59.81603 | 30.10846 | 1285 ft | 125 kts | 96° |
| 2026-04-20 16:13 | 59.81360 | 30.12504 | 1098 ft | 124 kts | 97° |
| 2026-04-20 16:14 | 59.81118 | 30.14144 | 894 ft | 124 kts | 98° |
| 2026-04-20 16:14 | 59.80873 | 30.15790 | 731 ft | 124 kts | 99° |
| 2026-04-20 16:14 | 59.80635 | 30.17450 | 537 ft | 125 kts | 99° |
| 2026-04-20 16:14 | 59.80395 | 30.19103 | 408 ft | 125 kts | 99° |
| 2026-04-20 16:15 | 59.80149 | 30.20752 | 228 ft | 125 kts | 100° |
| 2026-04-20 16:15 | 59.79905 | 30.22403 | 96 ft | 121 kts | 99° |
| 2026-04-20 16:15 | 59.79706 | 30.23776 | 83 ft | 81 kts | 107° |
| 2026-04-20 16:15 | 59.79591 | 30.24534 | 85 ft | 38 kts | 106° |
| 2026-04-20 16:16 | 59.79526 | 30.24992 | 84 ft | 32 kts | 106° |
| 2026-04-20 16:16 | 59.79492 | 30.25230 | 84 ft | 9 kts | 105° |
| 2026-04-20 16:16 | 59.79484 | 30.25349 | 84 ft | 9 kts | 90° |
| 2026-04-20 16:16 | 59.79491 | 30.25484 | 84 ft | 11 kts | 80° |
| 2026-04-20 16:17 | 59.79508 | 30.25644 | 83 ft | 13 kts | 75° |
| 2026-04-20 16:17 | 59.79530 | 30.25820 | 87 ft | 13 kts | 76° |
| 2026-04-20 16:17 | 59.79552 | 30.26005 | 84 ft | 14 kts | 95° |
| 2026-04-20 16:17 | 59.79524 | 30.26205 | 87 ft | 16 kts | 105° |
| 2026-04-20 16:18 | 59.79518 | 30.26357 | 85 ft | 8 kts | 51° |
| 2026-04-20 16:18 | 59.79578 | 30.26388 | 87 ft | 10 kts | 17° |
| 2026-04-20 16:18 | 59.79659 | 30.26436 | 86 ft | 14 kts | 17° |
| 2026-04-20 16:18 | 59.79751 | 30.26497 | 84 ft | 13 kts | 36° |
| 2026-04-20 16:19 | 59.79747 | 30.26607 | 82 ft | 3 kts | 106° |
| 2026-04-20 16:19 | 59.79745 | 30.26622 | 82 ft | 0 kts | 107° |